WetterOnline ( https://www.wetteronline.de )

Wetter aktuell Neuhof

Aktuelles Wetter: Wasserkuppe (925m)

6-stündlich | Neueste Meldungen
Ortszeit Temperatur Wetter
So, 15.05. 8:00 11.9° C leicht bewölkt
So, 15.05. 2:00 9.8° C wolkenlos
Sa, 14.05. 20:00 15.5° C leicht bewölkt
Sa, 14.05. 14:00 16.1° C wolkenlos
Sa, 14.05. 8:00 9.5° C wolkig
Sa, 14.05. 2:00 9.4° C leicht bewölkt
Fr, 13.05. 20:00 10.9° C leicht bewölkt
Fr, 13.05. 14:00 11.2° C bewölkt
Ortszeit Temperatur Wetter
So, 15.05. 12:30 16.8° C wolkenlos
So, 15.05. 12:20 16.8° C wolkenlos
So, 15.05. 12:10 17.3° C fast wolkenlos
So, 15.05. 12:00 16.7° C leicht bewölkt
So, 15.05. 11:50 16.7° C leicht bewölkt
So, 15.05. 11:40 17.0° C leicht bewölkt
So, 15.05. 11:30 16.2° C leicht bewölkt
So, 15.05. 11:00 16.0° C leicht bewölkt
So, 15.05. 10:30 15.9° C leicht bewölkt
So, 15.05. 10:00 15.1° C leicht bewölkt
So, 15.05. 9:30 14.5° C leicht bewölkt
Ortszeit Relative Feuchte Sichtweite
So, 15.05. 8:00 65% 35 km
So, 15.05. 2:00 72% 35 km
Sa, 14.05. 20:00 44% 45 km
Sa, 14.05. 14:00 55% 35 km
Sa, 14.05. 8:00 77% 35 km
Sa, 14.05. 2:00 67% 55 km
Fr, 13.05. 20:00 64% 45 km
Fr, 13.05. 14:00 62% 40 km
Ortszeit Relative Feuchte Sichtweite
So, 15.05. 12:30 48% 40 km
So, 15.05. 12:20 48% -
So, 15.05. 12:10 47% -
So, 15.05. 12:00 47% 50 km
So, 15.05. 11:50 47% -
So, 15.05. 11:40 51% -
So, 15.05. 11:30 49% 40 km
So, 15.05. 11:00 54% 35 km
So, 15.05. 10:30 55% 30 km
So, 15.05. 10:00 58% 30 km
So, 15.05. 9:30 61% 28 km
Ortszeit Niederschlagsmenge Niederschlagsart
So, 15.05. 8:00 0.0 l/m2 in 12 Std. -
So, 15.05. 2:00 0.0 l/m2 in 6 Std. -
Sa, 14.05. 20:00 0.0 l/m2 in 12 Std. -
Sa, 14.05. 14:00 0.0 l/m2 in 6 Std. -
Sa, 14.05. 8:00 0.0 l/m2 in 12 Std. -
Sa, 14.05. 2:00 0.0 l/m2 in 6 Std. -
Fr, 13.05. 20:00 0.0 l/m2 in 12 Std. -
Fr, 13.05. 14:00 0.0 l/m2 in 6 Std. -
Ortszeit Niederschlagsmenge Niederschlagsart
So, 15.05. 12:30 0.0 l/m2 in 1 Std. -
So, 15.05. 12:20 keine Meldung -
So, 15.05. 12:10 keine Meldung -
So, 15.05. 12:00 0.0 l/m2 in 1 Std. -
So, 15.05. 11:50 keine Meldung -
So, 15.05. 11:40 keine Meldung -
So, 15.05. 11:30 0.0 l/m2 in 1 Std. -
So, 15.05. 11:00 0.0 l/m2 in 1 Std. -
So, 15.05. 10:30 0.0 l/m2 in 1 Std. -
So, 15.05. 10:00 0.0 l/m2 in 1 Std. -
So, 15.05. 9:30 0.0 l/m2 in 1 Std. -
Ortszeit Stärke Spitze Richtung
km/h Bft. km/h Grad Sektor
So, 15.05. 8:00 19 3 26 120° SO
So, 15.05. 2:00 15 3 20 110° O
Sa, 14.05. 20:00 9 2 31 310° NW
Sa, 14.05. 14:00 18 3 32 260° W
Sa, 14.05. 8:00 11 2 25 310° NW
Sa, 14.05. 2:00 14 3 29 290° W
Fr, 13.05. 20:00 14 3 36 270° W
Fr, 13.05. 14:00 20 4 56 290° W
Ortszeit Stärke Spitze Richtung
km/h Bft. km/h Grad Sektor
So, 15.05. 12:30 7 2 14 110° O
So, 15.05. 12:20 7 2 - 110° O
So, 15.05. 12:10 6 1 - 110° O
So, 15.05. 12:00 7 2 18 110° O
So, 15.05. 11:50 7 2 - 110° O
So, 15.05. 11:40 4 1 - 150° SO
So, 15.05. 11:30 11 2 18 140° SO
So, 15.05. 11:00 13 3 20 130° SO
So, 15.05. 10:30 13 3 20 120° SO
So, 15.05. 10:00 17 3 24 120° SO
So, 15.05. 9:30 17 3 22 130° SO
Ortszeit Untergrenze Bedeckung Gattung
total tief tief mittel hoch
So, 15.05. 8:00 9000 m 3/8 0/8 - - -
So, 15.05. 2:00 - 0/8 0/8 - - -
Sa, 14.05. 20:00 10500 m 7/8 0/8 - - -
Sa, 14.05. 14:00 - 0/8 0/8 - - -
Sa, 14.05. 8:00 5100 m 7/8 4/8 - - -
Sa, 14.05. 2:00 10500 m 3/8 0/8 - - -
Fr, 13.05. 20:00 9000 m 7/8 0/8 - - -
Fr, 13.05. 14:00 750 m 7/8 7/8 - - -
Ortszeit Bedeckungsgrad in Achtel und Wolkenuntergrenze
So, 15.05. 12:30 keine Wolken
So, 15.05. 12:20 keine Wolken
So, 15.05. 12:10 1
So, 15.05. 12:00 4(9000m)
So, 15.05. 11:50 4(9000m)
So, 15.05. 11:40 3
So, 15.05. 11:30 3(9000m)
So, 15.05. 11:00 7(9000m)
So, 15.05. 10:30 6(9000m) 6(9000m)
So, 15.05. 10:00 6(9000m)
So, 15.05. 9:30 4(9000m)
Ortszeit Stationsdruck (hPa) Tendenz (hPa in 3 Std.)
So, 15.05. 8:00 915 + 0,6
So, 15.05. 2:00 915 - 0,3
Sa, 14.05. 20:00 915 - 0,1
Sa, 14.05. 14:00 915 - 0,2
Sa, 14.05. 8:00 915 + 0,3
Sa, 14.05. 2:00 915 + 0,1
Fr, 13.05. 20:00 914 + 0,2
Fr, 13.05. 14:00 914 + 0,4
Ortszeit Stationsdruck (hPa) Tendenz (hPa in 3 Std.)
So, 15.05. 12:30 915 0,0
So, 15.05. 12:20 915 keine Meldung
So, 15.05. 12:10 915 keine Meldung
So, 15.05. 12:00 915 0,0
So, 15.05. 11:50 915 keine Meldung
So, 15.05. 11:40 915 keine Meldung
So, 15.05. 11:30 915 + 0,1
So, 15.05. 11:00 915 + 0,2
So, 15.05. 10:30 915 + 0,3
So, 15.05. 10:00 915 + 0,4
So, 15.05. 9:30 915 + 0,7
Ortszeit Schneehöhe (cm)
So, 15.05. 8:00 0
So, 15.05. 2:00 0
Sa, 14.05. 20:00 0
Sa, 14.05. 14:00 0
Sa, 14.05. 8:00 0
Sa, 14.05. 2:00 0
Fr, 13.05. 20:00 0
Fr, 13.05. 14:00 0
Ortszeit Schneehöhe (cm)
So, 15.05. 12:30 0
So, 15.05. 12:20 0
So, 15.05. 12:10 0
So, 15.05. 12:00 0
So, 15.05. 11:50 0
So, 15.05. 11:40 0
So, 15.05. 11:30 0
So, 15.05. 11:00 0
So, 15.05. 10:30 0
So, 15.05. 10:00 0
So, 15.05. 9:30 0
Link zu dieser Seite / Seite empfehlen

Das Wetter in ...